createdAt,value
2022-10-28T00:01:51.177Z,2.97
2022-10-28T00:06:58.967Z,2.90
2022-10-28T00:12:08.197Z,2.95
2022-10-28T00:17:15.166Z,3.35
2022-10-28T00:22:20.606Z,2.65
2022-10-28T00:27:27.428Z,3.47
2022-10-28T00:32:34.511Z,3.00
2022-10-28T00:37:41.949Z,2.50
2022-10-28T00:42:53.952Z,3.22
2022-10-28T00:48:02.529Z,3.20
2022-10-28T00:53:09.908Z,3.22
2022-10-28T00:58:20.424Z,3.25
2022-10-28T01:03:27.932Z,3.47
2022-10-28T01:08:33.966Z,2.92
2022-10-28T01:13:51.042Z,2.78
2022-10-28T01:19:07.100Z,3.42
2022-10-28T01:24:30.807Z,3.25
2022-10-28T01:30:09.122Z,2.97
2022-10-28T01:35:27.346Z,2.92
2022-10-28T01:40:45.435Z,3.33
2022-10-28T01:46:00.566Z,3.10
2022-10-28T01:51:14.752Z,3.13
2022-10-28T01:56:28.740Z,3.30
2022-10-28T02:01:37.569Z,3.22
2022-10-28T02:06:49.233Z,3.30
2022-10-28T02:12:15.259Z,3.63
2022-10-28T02:17:31.585Z,3.92
2022-10-28T02:22:52.081Z,3.50
2022-10-28T02:28:03.786Z,3.60
2022-10-28T02:33:14.010Z,4.30
2022-10-28T02:38:30.049Z,3.67
2022-10-28T02:43:39.083Z,3.58
2022-10-28T02:48:51.274Z,4.20
2022-10-28T02:54:06.048Z,3.53
2022-10-28T02:59:13.706Z,3.42
2022-10-28T03:04:19.214Z,3.58
2022-10-28T03:09:24.244Z,3.85
2022-10-28T03:14:27.807Z,3.92
2022-10-28T03:19:43.076Z,3.57
2022-10-28T03:24:47.864Z,3.88
2022-10-28T03:29:51.908Z,3.80
2022-10-28T03:34:55.936Z,3.50
2022-10-28T03:40:09.107Z,3.42
2022-10-28T03:45:13.764Z,4.28
2022-10-28T03:50:18.160Z,3.97
2022-10-28T04:00:32.273Z,4.22
2022-10-28T04:05:37.471Z,4.20
2022-10-28T04:10:50.506Z,3.83
2022-10-28T04:16:03.263Z,3.88
2022-10-28T04:21:12.755Z,4.30
2022-10-28T04:26:19.450Z,4.15
2022-10-28T04:31:22.153Z,4.55
2022-10-28T04:36:24.915Z,4.22
2022-10-28T04:41:29.007Z,3.85
2022-10-28T04:46:31.706Z,3.75
2022-10-28T04:51:34.676Z,3.83
2022-10-28T04:56:38.641Z,4.05
2022-10-28T05:01:41.349Z,5.35
2022-10-28T05:06:43.976Z,4.25
2022-10-28T05:11:48.002Z,4.43
2022-10-28T05:16:50.654Z,4.10
2022-10-28T05:21:53.398Z,5.10
2022-10-28T05:26:57.528Z,3.95
2022-10-28T05:32:00.839Z,4.20
2022-10-28T05:37:03.498Z,4.53
2022-10-28T05:42:07.535Z,4.60
2022-10-28T05:47:10.192Z,4.35
2022-10-28T05:52:12.840Z,3.67
2022-10-28T05:57:16.770Z,4.47
2022-10-28T06:02:19.371Z,4.13
2022-10-28T06:07:21.944Z,4.05
2022-10-28T06:12:24.325Z,4.80
2022-10-28T06:17:26.970Z,4.70
2022-10-28T06:22:29.529Z,5.25
2022-10-28T06:27:33.509Z,4.78
2022-10-28T06:32:36.184Z,6.13
2022-10-28T06:37:38.901Z,5.50
2022-10-28T06:42:43.397Z,5.22
2022-10-28T06:47:47.531Z,5.07
2022-10-28T06:52:50.356Z,5.38
2022-10-28T06:57:54.883Z,5.35
2022-10-28T07:03:01.048Z,5.25
2022-10-28T07:08:04.163Z,6.75
2022-10-28T07:13:10.542Z,6.15
2022-10-28T07:18:13.298Z,5.97
2022-10-28T07:23:16.093Z,6.30
2022-10-28T07:28:20.811Z,5.80
2022-10-28T07:33:23.469Z,6.75
2022-10-28T07:38:28.814Z,6.68
2022-10-28T07:43:32.889Z,6.03
2022-10-28T07:48:36.881Z,4.47
2022-10-28T07:53:40.078Z,3.22
2022-10-28T07:58:45.648Z,3.90
2022-10-28T08:03:50.697Z,3.10
2022-10-28T08:08:56.697Z,2.97
2022-10-28T08:14:00.886Z,3.67
2022-10-28T08:24:10.695Z,3.97
2022-10-28T08:29:17.522Z,4.28
2022-10-28T08:39:24.194Z,4.05
2022-10-28T08:44:58.670Z,4.93
2022-10-28T08:55:08.699Z,4.93
2022-10-28T09:00:21.747Z,4.20
2022-10-28T09:05:26.333Z,4.85
2022-10-28T09:10:59.175Z,16.05
2022-10-28T09:16:13.726Z,4.93
2022-10-28T09:21:25.340Z,4.45
2022-10-28T09:26:42.254Z,3.72
2022-10-28T09:31:49.384Z,4.75
2022-10-28T09:36:56.801Z,5.38
2022-10-28T09:42:01.914Z,3.42
2022-10-28T09:47:16.484Z,5.30
2022-10-28T09:52:26.657Z,10.75
2022-10-28T09:57:32.769Z,10.40
2022-10-28T10:02:40.515Z,7.20
2022-10-28T10:07:47.539Z,8.05
2022-10-28T10:12:52.535Z,6.93
2022-10-28T10:17:59.605Z,4.75
2022-10-28T10:23:02.321Z,4.20
2022-10-28T10:28:15.765Z,4.38
2022-10-28T10:33:22.469Z,5.13
2022-10-28T10:38:25.510Z,4.60
2022-10-28T10:43:34.500Z,3.55
2022-10-28T10:48:38.591Z,3.15
2022-10-28T10:53:41.623Z,2.58
2022-10-28T10:58:52.635Z,2.95
2022-10-28T11:04:00.311Z,2.75
2022-10-28T11:09:06.078Z,2.70
2022-10-28T11:14:24.386Z,2.47
2022-10-28T11:19:33.151Z,2.88
2022-10-28T11:24:50.525Z,2.08
2022-10-28T11:29:54.302Z,2.70
2022-10-28T11:35:39.432Z,2.30
2022-10-28T11:40:56.088Z,2.70
2022-10-28T11:46:08.423Z,2.55
2022-10-28T11:51:28.229Z,3.20
2022-10-28T11:56:37.929Z,2.13
2022-10-28T12:01:52.347Z,2.28
2022-10-28T12:07:11.324Z,2.90
2022-10-28T12:12:23.217Z,3.15
2022-10-28T12:17:31.502Z,3.33
2022-10-28T12:22:46.551Z,2.78
2022-10-28T12:27:52.434Z,2.22
2022-10-28T12:33:01.237Z,2.88
2022-10-28T12:38:21.376Z,2.67
2022-10-28T12:43:30.820Z,2.33
2022-10-28T12:48:40.784Z,2.40
2022-10-28T12:53:51.135Z,2.22
2022-10-28T12:59:05.457Z,2.45
2022-10-28T13:04:12.257Z,3.60
2022-10-28T13:09:37.815Z,3.08
2022-10-28T13:14:59.999Z,3.05
2022-10-28T13:20:15.662Z,2.50
2022-10-28T13:25:38.080Z,2.85
2022-10-28T13:30:53.589Z,3.28
2022-10-28T13:36:08.985Z,2.47
2022-10-28T13:41:34.960Z,3.33
2022-10-28T13:47:03.367Z,4.45
2022-10-28T13:52:21.195Z,3.25
2022-10-28T13:57:29.843Z,2.85
2022-10-28T14:02:38.798Z,2.30
2022-10-28T14:07:52.811Z,2.60
2022-10-28T14:13:00.632Z,2.70
2022-10-28T14:24:32.550Z,3.47
2022-10-28T14:29:46.319Z,3.10
2022-10-28T14:34:49.302Z,3.45
2022-10-28T14:40:03.067Z,2.63
2022-10-28T14:45:24.682Z,3.28
2022-10-28T14:50:38.414Z,2.92
2022-10-28T14:55:41.453Z,2.67
2022-10-28T15:00:57.298Z,2.60
2022-10-28T15:06:20.599Z,2.63
2022-10-28T15:11:24.074Z,2.70
2022-10-28T15:16:28.097Z,2.72
2022-10-28T15:21:30.799Z,3.40
2022-10-28T15:26:35.946Z,2.90
2022-10-28T15:32:11.475Z,2.50
2022-10-28T15:37:18.764Z,3.53
2022-10-28T15:42:37.517Z,2.58
2022-10-28T15:47:41.502Z,3.42
2022-10-28T15:52:45.085Z,3.20
2022-10-28T15:57:49.585Z,2.58
2022-10-28T16:02:56.568Z,2.60
2022-10-28T16:08:00.400Z,3.05
2022-10-28T16:13:07.740Z,2.65
2022-10-28T16:18:15.595Z,3.17
2022-10-28T16:23:23.747Z,2.70
2022-10-28T16:28:29.206Z,2.55
2022-10-28T16:33:37.552Z,3.28
2022-10-28T16:38:41.748Z,3.40
2022-10-28T16:43:45.875Z,3.38
2022-10-28T16:48:50.615Z,3.13
2022-10-28T16:53:54.590Z,3.33
2022-10-28T17:04:03.369Z,3.33
2022-10-28T17:09:08.719Z,3.30
2022-10-28T17:14:11.806Z,3.10
2022-10-28T17:19:16.885Z,2.97
2022-10-28T17:24:22.567Z,2.78
2022-10-28T17:29:29.245Z,3.13
2022-10-28T17:34:33.821Z,3.80
2022-10-28T17:39:37.995Z,2.72
2022-10-28T17:44:41.080Z,2.97
2022-10-28T17:49:46.723Z,3.00
2022-10-28T17:54:51.735Z,2.85
2022-10-28T17:59:54.844Z,3.67
2022-10-28T18:04:59.466Z,3.03
2022-10-28T18:10:03.071Z,2.65
2022-10-28T18:15:11.030Z,3.40
2022-10-28T18:20:22.039Z,3.00
2022-10-28T18:25:30.025Z,3.88
2022-10-28T18:30:36.020Z,2.88
2022-10-28T18:35:43.954Z,2.80
2022-10-28T18:40:51.441Z,2.90
2022-10-28T18:45:55.457Z,3.10
2022-10-28T18:56:06.592Z,3.00
2022-10-28T19:01:11.790Z,3.72
2022-10-28T19:06:18.025Z,2.95
2022-10-28T19:11:25.975Z,3.08
2022-10-28T19:16:30.374Z,3.03
2022-10-28T19:21:35.244Z,3.08
2022-10-28T19:26:41.927Z,2.83
2022-10-28T19:31:45.013Z,3.00
2022-10-28T19:36:49.898Z,3.00
2022-10-28T19:41:53.004Z,2.90
2022-10-28T19:46:56.245Z,3.03
2022-10-28T19:52:00.634Z,3.47
2022-10-28T19:57:03.958Z,3.13
2022-10-28T20:02:07.258Z,3.15
2022-10-28T20:07:12.277Z,2.80
2022-10-28T20:12:15.192Z,2.67
2022-10-28T20:17:18.720Z,3.65
2022-10-28T20:22:22.864Z,3.17
2022-10-28T20:32:29.053Z,3.38
2022-10-28T20:37:33.808Z,3.33
2022-10-28T20:42:37.123Z,3.45
2022-10-28T20:47:40.343Z,3.70
2022-10-28T20:52:48.944Z,3.40
2022-10-28T20:57:52.549Z,3.58
2022-10-28T21:02:57.510Z,4.03
2022-10-28T21:08:02.641Z,3.78
2022-10-28T21:13:07.191Z,3.70
2022-10-28T21:18:10.352Z,4.43
2022-10-28T21:23:14.921Z,4.30
2022-10-28T21:28:17.942Z,3.50
2022-10-28T21:33:21.913Z,4.03
2022-10-28T21:38:30.074Z,3.58
2022-10-28T21:43:36.298Z,4.43
2022-10-28T21:48:42.643Z,4.00
2022-10-28T21:53:50.207Z,3.13
2022-10-28T21:58:53.114Z,3.70
2022-10-28T22:03:57.330Z,4.13
2022-10-28T22:14:07.043Z,3.22
2022-10-28T22:19:14.004Z,2.97
2022-10-28T22:24:18.545Z,2.65
2022-10-28T22:29:21.602Z,2.67
2022-10-28T22:34:24.608Z,2.58
2022-10-28T22:39:28.839Z,2.60
2022-10-28T22:49:37.082Z,3.35
2022-10-28T22:54:41.880Z,3.00
2022-10-28T22:59:44.911Z,2.85
2022-10-28T23:04:48.130Z,2.97
2022-10-28T23:09:53.777Z,3.53
2022-10-28T23:14:58.804Z,2.97
2022-10-28T23:20:01.985Z,3.70
2022-10-28T23:25:10.521Z,3.60
2022-10-28T23:30:19.172Z,3.58
2022-10-28T23:35:22.485Z,3.45
2022-10-28T23:40:27.311Z,3.40
2022-10-28T23:45:30.970Z,3.80
2022-10-28T23:50:33.940Z,3.80
2022-10-28T23:55:38.912Z,3.40
